Aviation Digital Data Service (ADDS)

Output produced by TAFs form (0055 UTC 25 August 2016)
found at http://www.aviationweather.gov/adds/tafs/
 
KPSF 242333Z 2500/2524 21005KT P6SM FEW250 
     FM250600 18004KT 3SM BR SCT250 
     TEMPO 2507/2510 1SM BR VV001 
     FM251130 21005KT P6SM SCT120 BKN250 
     FM251400 21008G15KT P6SM SCT050 BKN120 
     FM251800 21010G18KT P6SM BKN050 OVC100